createdAt,value
2019-02-12T00:00:16.603Z,99205.00
2019-02-12T00:02:45.251Z,99207.78
2019-02-12T00:05:13.948Z,99209.42
2019-02-12T00:07:42.331Z,99212.08
2019-02-12T00:10:11.004Z,99218.09
2019-02-12T00:12:39.392Z,99210.59
2019-02-12T00:15:08.386Z,99214.38
2019-02-12T00:17:36.783Z,99230.19
2019-02-12T00:20:06.513Z,99226.45
2019-02-12T00:22:35.190Z,99231.45
2019-02-12T00:25:04.755Z,99224.75
2019-02-12T00:27:33.151Z,99225.33
2019-02-12T00:30:01.841Z,99223.20
2019-02-12T00:32:30.508Z,99231.11
2019-02-12T00:34:59.195Z,99226.84
2019-02-12T00:37:27.883Z,99227.56
2019-02-12T00:39:56.292Z,99234.33
2019-02-12T00:42:24.948Z,99236.67
2019-02-12T00:44:53.629Z,99245.17
2019-02-12T00:47:22.055Z,99253.09
2019-02-12T00:49:50.456Z,99250.31
2019-02-12T00:52:19.174Z,99252.13
2019-02-12T00:54:47.864Z,99244.29
2019-02-12T00:57:16.253Z,99246.23
2019-02-12T00:59:44.954Z,99246.23
2019-02-12T01:02:13.629Z,99245.27
2019-02-12T01:04:42.019Z,99256.50
2019-02-12T01:07:10.408Z,99256.44
2019-02-12T01:09:38.826Z,99267.34
2019-02-12T01:12:07.239Z,99276.19
2019-02-12T01:14:35.631Z,99283.64
2019-02-12T01:17:04.392Z,99289.38
2019-02-12T01:19:33.082Z,99294.63
2019-02-12T01:22:01.768Z,99294.19
2019-02-12T01:24:30.457Z,99296.63
2019-02-12T01:26:59.147Z,99299.55
2019-02-12T01:29:27.933Z,99307.29
2019-02-12T01:31:56.377Z,99306.25
2019-02-12T01:34:24.730Z,99309.38
2019-02-12T01:36:53.472Z,99306.34
2019-02-12T01:39:22.166Z,99310.15
2019-02-12T01:41:50.847Z,99302.05
2019-02-12T01:44:19.239Z,99310.15
2019-02-12T01:46:47.632Z,99300.94
2019-02-12T01:49:16.048Z,99301.97
2019-02-12T01:51:44.435Z,99299.50
2019-02-12T01:54:12.845Z,99299.80
2019-02-12T01:56:41.529Z,99299.45
2019-02-12T01:59:10.214Z,99291.66
2019-02-12T02:01:38.903Z,99290.80
2019-02-12T02:04:07.316Z,99302.75
2019-02-12T02:06:36.064Z,99305.73
2019-02-12T02:09:05.714Z,99309.47
2019-02-12T02:11:34.106Z,99310.31
2019-02-12T02:14:02.519Z,99303.01
2019-02-12T02:16:31.219Z,99305.73
2019-02-12T02:18:59.904Z,99305.42
2019-02-12T02:21:28.603Z,99310.34
2019-02-12T02:23:57.015Z,99303.47
2019-02-12T02:26:25.645Z,99312.73
2019-02-12T02:28:54.038Z,99309.35
2019-02-12T02:31:22.969Z,99314.73
2019-02-12T02:33:51.612Z,99316.50
2019-02-12T02:36:20.325Z,99323.69
2019-02-12T02:38:48.714Z,99332.91
2019-02-12T02:41:17.096Z,99330.67
2019-02-12T02:43:45.501Z,99343.44
2019-02-12T02:46:14.224Z,99345.91
2019-02-12T02:48:42.652Z,99350.52
2019-02-12T02:51:11.059Z,99351.70
2019-02-12T02:53:39.451Z,99354.58
2019-02-12T02:56:07.865Z,99359.78
2019-02-12T02:58:36.500Z,99356.20
2019-02-12T03:01:04.987Z,99359.16
2019-02-12T03:03:33.717Z,99366.44
2019-02-12T03:06:02.102Z,99371.89
2019-02-12T03:08:30.507Z,99370.59
2019-02-12T03:10:58.898Z,99371.67
2019-02-12T03:13:27.640Z,99375.77
2019-02-12T03:15:56.327Z,99383.28
2019-02-12T03:18:24.722Z,99378.42
2019-02-12T03:20:53.387Z,99376.63
2019-02-12T03:23:21.781Z,99391.02
2019-02-12T03:25:50.472Z,99390.50
2019-02-12T03:28:19.100Z,99392.66
2019-02-12T03:30:47.495Z,99402.80
2019-02-12T03:33:15.900Z,99407.65
2019-02-12T03:35:44.524Z,99406.53
2019-02-12T03:38:13.272Z,99408.91
2019-02-12T03:40:41.669Z,99409.81
2019-02-12T03:43:10.332Z,99417.27
2019-02-12T03:45:39.017Z,99415.19
2019-02-12T03:48:07.410Z,99410.50
2019-02-12T03:50:35.816Z,99403.88
2019-02-12T03:53:04.447Z,99410.69
2019-02-12T03:55:33.162Z,99417.01
2019-02-12T03:58:01.632Z,99422.77
2019-02-12T04:00:30.418Z,99432.30
2019-02-12T04:03:18.184Z,99425.77
2019-02-12T04:05:46.580Z,99426.45
2019-02-12T04:08:55.124Z,99427.31
2019-02-12T04:11:24.399Z,99423.20
2019-02-12T04:13:54.266Z,99415.05
2019-02-12T04:16:22.948Z,99412.73
2019-02-12T04:18:51.343Z,99423.77
2019-02-12T04:21:20.012Z,99416.23
2019-02-12T04:23:48.403Z,99417.14
2019-02-12T04:26:17.108Z,99422.41
2019-02-12T04:29:04.852Z,99422.17
2019-02-12T04:31:33.271Z,99435.48
2019-02-12T04:34:01.667Z,99435.97
2019-02-12T04:36:30.369Z,99435.94
2019-02-12T04:38:58.777Z,99434.15
2019-02-12T04:41:27.169Z,99433.16
2019-02-12T04:43:55.584Z,99436.41
2019-02-12T04:46:23.978Z,99438.33
2019-02-12T04:48:52.360Z,99429.31
2019-02-12T04:51:20.778Z,99433.23
2019-02-12T04:53:49.161Z,99428.07
2019-02-12T04:56:17.565Z,99427.11
2019-02-12T04:58:45.987Z,99426.59
2019-02-12T05:01:14.375Z,99430.19
2019-02-12T05:03:42.765Z,99431.73
2019-02-12T05:06:11.159Z,99429.74
2019-02-12T05:09:19.471Z,99433.95
2019-02-12T05:12:28.014Z,99435.13
2019-02-12T05:14:56.444Z,99432.83
2019-02-12T05:17:25.111Z,99428.58
2019-02-12T05:19:53.883Z,99430.95
2019-02-12T05:22:22.580Z,99430.44
2019-02-12T05:24:51.269Z,99426.62
2019-02-12T05:27:19.921Z,99425.77
2019-02-12T05:29:48.641Z,99423.36
2019-02-12T05:32:17.326Z,99427.72
2019-02-12T05:35:06.169Z,99430.36
2019-02-12T05:37:34.566Z,99428.38
2019-02-12T05:42:57.181Z,99435.39
2019-02-12T05:45:25.829Z,99440.40
2019-02-12T05:47:54.499Z,99449.34
2019-02-12T05:50:22.896Z,99448.85
2019-02-12T05:52:54.385Z,99460.48
2019-02-12T05:55:21.684Z,99458.39
2019-02-12T05:57:50.368Z,99460.48
2019-02-12T06:00:58.687Z,99468.69
2019-02-12T06:03:27.373Z,99466.70
2019-02-12T06:05:55.762Z,99473.27
2019-02-12T06:08:24.153Z,99464.25
2019-02-12T06:10:52.557Z,99468.34
2019-02-12T06:13:21.309Z,99461.75
2019-02-12T06:15:49.987Z,99462.80
2019-02-12T06:18:18.386Z,99463.52
2019-02-12T06:20:46.788Z,99460.48
2019-02-12T06:23:15.184Z,99476.93
2019-02-12T06:25:43.572Z,99463.36
2019-02-12T06:28:12.215Z,99468.47
2019-02-12T06:30:40.843Z,99459.75
2019-02-12T06:33:09.552Z,99467.06
2019-02-12T06:35:37.943Z,99466.70
2019-02-12T06:38:06.623Z,99465.95
2019-02-12T06:40:35.008Z,99476.83
2019-02-12T06:43:03.401Z,99468.14
2019-02-12T06:45:31.804Z,99469.42
2019-02-12T06:48:00.540Z,99472.86
2019-02-12T06:50:28.946Z,99476.06
2019-02-12T06:52:57.623Z,99480.14
2019-02-12T06:55:26.292Z,99483.33
2019-02-12T06:57:54.686Z,99482.48
2019-02-12T07:00:23.356Z,99489.13
2019-02-12T07:03:11.567Z,99496.01
2019-02-12T07:06:19.881Z,99500.87
2019-02-12T07:09:28.246Z,99494.98
2019-02-12T07:12:35.222Z,99495.30
2019-02-12T07:15:24.020Z,99493.46
2019-02-12T07:18:32.400Z,99489.02
2019-02-12T07:21:39.390Z,99489.30
2019-02-12T07:24:47.941Z,99498.24
2019-02-12T07:27:55.161Z,99500.06
2019-02-12T07:31:03.474Z,99509.62
2019-02-12T07:34:11.827Z,99515.33
2019-02-12T07:37:20.136Z,99523.50
2019-02-12T07:40:27.133Z,99531.88
2019-02-12T07:43:34.114Z,99543.63
2019-02-12T07:46:41.113Z,99542.84
2019-02-12T07:49:49.641Z,99539.98
2019-02-12T07:52:57.954Z,99546.84
2019-02-12T07:56:06.295Z,99554.44
2019-02-12T07:59:13.486Z,99566.12
2019-02-12T08:02:22.056Z,99563.45
2019-02-12T08:05:30.370Z,99566.22
2019-02-12T08:08:38.977Z,99571.83
2019-02-12T08:11:46.206Z,99568.89
2019-02-12T08:14:54.511Z,99575.19
2019-02-12T08:18:02.822Z,99581.08
2019-02-12T08:21:11.420Z,99578.88
2019-02-12T08:24:19.979Z,99582.45
2019-02-12T08:27:28.587Z,99586.83
2019-02-12T08:30:35.597Z,99591.81
2019-02-12T08:33:42.584Z,99587.08
2019-02-12T08:36:51.191Z,99591.21
2019-02-12T08:39:58.183Z,99593.48
2019-02-12T08:43:06.743Z,99601.57
2019-02-12T08:46:13.704Z,99593.24
2019-02-12T08:49:20.930Z,99604.67
2019-02-12T08:52:28.151Z,99604.36
2019-02-12T08:55:36.790Z,99615.41
2019-02-12T08:58:45.464Z,99622.15
2019-02-12T09:01:52.676Z,99628.68
2019-02-12T09:05:00.988Z,99626.35
2019-02-12T09:08:09.578Z,99629.45
2019-02-12T09:11:17.904Z,99629.70
2019-02-12T09:14:26.209Z,99633.28
2019-02-12T09:17:34.487Z,99633.41
2019-02-12T09:20:41.534Z,99628.34
2019-02-12T09:23:48.754Z,99637.98
2019-02-12T09:26:55.817Z,99635.77
2019-02-12T09:30:04.356Z,99638.41
2019-02-12T09:33:11.347Z,99628.77
2019-02-12T09:36:18.379Z,99631.45
2019-02-12T09:39:25.618Z,99631.52
2019-02-12T09:42:32.601Z,99637.50
2019-02-12T09:45:39.832Z,99636.38
2019-02-12T09:48:47.045Z,99638.93
2019-02-12T09:51:54.047Z,99651.48
2019-02-12T09:55:02.595Z,99647.25
2019-02-12T09:58:10.905Z,99654.28
2019-02-12T10:01:19.491Z,99648.27
2019-02-12T10:04:26.450Z,99654.23
2019-02-12T10:07:33.756Z,99655.77
2019-02-12T10:10:40.979Z,99653.51
2019-02-12T10:13:49.279Z,99651.17
2019-02-12T10:16:56.637Z,99658.17
2019-02-12T10:20:05.196Z,99659.34
2019-02-12T10:23:13.744Z,99664.09
2019-02-12T10:29:30.362Z,99671.70
2019-02-12T10:31:57.903Z,99674.65
2019-02-12T10:34:26.562Z,99668.73
2019-02-12T10:36:55.295Z,99669.56
2019-02-12T10:39:23.941Z,99674.88
2019-02-12T10:42:11.975Z,99684.14
2019-02-12T10:44:40.667Z,99680.13
2019-02-12T10:47:09.063Z,99685.34
2019-02-12T10:49:37.459Z,99681.19
2019-02-12T10:52:05.843Z,99683.56
2019-02-12T10:54:34.483Z,99679.72
2019-02-12T10:57:02.864Z,99680.33
2019-02-12T10:59:31.549Z,99675.41
2019-02-12T11:02:00.246Z,99667.56
2019-02-12T11:04:28.918Z,99667.88
2019-02-12T11:06:57.298Z,99669.97
2019-02-12T11:09:25.761Z,99659.63
2019-02-12T11:11:54.162Z,99660.20
2019-02-12T11:14:22.542Z,99665.46
2019-02-12T11:16:51.222Z,99668.17
2019-02-12T11:19:19.613Z,99658.61
2019-02-12T11:21:47.996Z,99666.23
2019-02-12T11:24:16.390Z,99661.93
2019-02-12T11:26:44.772Z,99664.45
2019-02-12T11:29:13.150Z,99661.45
2019-02-12T11:31:41.803Z,99661.23
2019-02-12T11:34:10.206Z,99669.23
2019-02-12T11:36:38.611Z,99670.23
2019-02-12T11:39:46.923Z,99677.82
2019-02-12T11:42:15.558Z,99672.07
2019-02-12T11:44:44.246Z,99679.54
2019-02-12T11:47:12.665Z,99681.91
2019-02-12T11:49:41.066Z,99682.28
2019-02-12T11:52:09.790Z,99683.27
2019-02-12T11:54:43.630Z,99690.48
2019-02-12T11:57:08.301Z,99690.46
2019-02-12T11:59:36.974Z,99684.09
2019-02-12T12:02:05.451Z,99689.73
2019-02-12T12:04:33.828Z,99686.36
2019-02-12T12:07:02.526Z,99685.03
2019-02-12T12:09:30.902Z,99687.45
2019-02-12T12:11:59.586Z,99677.20
2019-02-12T12:14:28.285Z,99680.62
2019-02-12T12:16:56.958Z,99682.25
2019-02-12T12:19:25.652Z,99691.50
2019-02-12T12:21:54.336Z,99687.09
2019-02-12T12:24:23.027Z,99691.36
2019-02-12T12:26:51.703Z,99694.05
2019-02-12T12:29:20.106Z,99694.45
2019-02-12T12:31:48.769Z,99694.03
2019-02-12T12:34:17.156Z,99694.97
2019-02-12T12:36:45.574Z,99691.30
2019-02-12T12:39:14.210Z,99677.03
2019-02-12T12:41:54.686Z,99684.56
2019-02-12T12:44:12.997Z,99698.75
2019-02-12T12:46:41.700Z,99691.27
2019-02-12T12:49:10.335Z,99696.87
2019-02-12T12:51:38.969Z,99693.09
2019-02-12T12:54:07.376Z,99682.61
2019-02-12T12:56:36.049Z,99694.58
2019-02-12T12:59:04.772Z,99695.79
2019-02-12T13:01:33.158Z,99688.89
2019-02-12T13:04:01.785Z,99684.52
2019-02-12T13:06:30.474Z,99686.95
2019-02-12T13:08:59.262Z,99691.53
2019-02-12T13:11:27.961Z,99687.30
2019-02-12T13:13:56.348Z,99686.63
2019-02-12T13:16:24.742Z,99690.03
2019-02-12T13:18:53.502Z,99683.49
2019-02-12T13:21:21.890Z,99689.59
2019-02-12T13:23:50.578Z,99690.79
2019-02-12T13:26:18.974Z,99692.21
2019-02-12T13:28:47.637Z,99686.67
2019-02-12T13:31:16.033Z,99684.70
2019-02-12T13:33:44.680Z,99681.91
2019-02-12T13:36:13.077Z,99689.34
2019-02-12T13:39:00.800Z,99687.38
2019-02-12T13:41:29.278Z,99691.40
2019-02-12T13:43:57.802Z,99686.75
2019-02-12T13:46:26.182Z,99684.86
2019-02-12T13:48:54.823Z,99689.45
2019-02-12T13:51:23.510Z,99692.58
2019-02-12T13:53:52.134Z,99696.30
2019-02-12T13:56:20.778Z,99688.66
2019-02-12T13:58:49.175Z,99699.85
2019-02-12T14:01:17.844Z,99697.73
2019-02-12T14:03:46.332Z,99698.34
2019-02-12T14:06:14.699Z,99698.69
2019-02-12T14:09:02.441Z,99698.57
2019-02-12T14:11:31.121Z,99699.16
2019-02-12T14:13:59.533Z,99705.99
2019-02-12T14:16:27.943Z,99709.21
2019-02-12T14:18:56.567Z,99705.91
2019-02-12T14:21:25.251Z,99709.47
2019-02-12T14:23:53.647Z,99710.20
2019-02-12T14:26:22.023Z,99710.64
2019-02-12T14:28:50.800Z,99719.59
2019-02-12T14:31:19.501Z,99716.33
2019-02-12T14:33:47.905Z,99714.00
2019-02-12T14:36:16.518Z,99725.33
2019-02-12T14:38:45.234Z,99726.70
2019-02-12T14:41:13.918Z,99724.11
2019-02-12T14:43:42.298Z,99726.05
2019-02-12T14:46:10.688Z,99723.17
2019-02-12T14:48:39.371Z,99727.59
2019-02-12T14:51:07.771Z,99728.07
2019-02-12T14:53:36.440Z,99723.39
2019-02-12T14:56:24.459Z,99720.19
2019-02-12T14:59:00.083Z,99726.25
2019-02-12T15:01:28.698Z,99719.03
2019-02-12T15:03:57.090Z,99713.92
2019-02-12T15:06:25.486Z,99718.09
2019-02-12T15:08:54.143Z,99719.56
2019-02-12T15:11:22.767Z,99712.50
2019-02-12T15:13:51.510Z,99716.47
2019-02-12T15:16:19.886Z,99706.19
2019-02-12T15:18:48.327Z,99711.09
2019-02-12T15:21:16.721Z,99707.47
2019-02-12T15:23:45.438Z,99701.57
2019-02-12T15:26:13.839Z,99709.25
2019-02-12T15:28:42.507Z,99710.05
2019-02-12T15:31:10.914Z,99707.50
2019-02-12T15:33:58.416Z,99705.86
2019-02-12T15:36:26.882Z,99706.20
2019-02-12T15:38:55.578Z,99711.66
2019-02-12T15:41:24.281Z,99711.22
2019-02-12T15:43:52.674Z,99716.87
2019-02-12T15:46:21.049Z,99718.43
2019-02-12T15:48:49.439Z,99715.77
2019-02-12T15:51:17.830Z,99713.94
2019-02-12T15:53:46.470Z,99714.83
2019-02-12T15:56:15.106Z,99719.19
2019-02-12T15:58:43.505Z,99712.91
2019-02-12T16:01:12.218Z,99711.78
2019-02-12T16:03:40.610Z,99716.23
2019-02-12T16:06:09.014Z,99716.48
2019-02-12T16:08:37.466Z,99717.45
2019-02-12T16:11:05.917Z,99724.88
2019-02-12T16:13:36.288Z,99719.83
2019-02-12T16:16:05.720Z,99725.30
2019-02-12T16:18:35.474Z,99734.95
2019-02-12T16:21:03.886Z,99729.17
2019-02-12T16:23:32.560Z,99737.81
2019-02-12T16:26:01.352Z,99733.77
2019-02-12T16:28:49.058Z,99738.66
2019-02-12T16:31:18.655Z,99741.24
2019-02-12T16:33:47.872Z,99746.27
2019-02-12T16:36:16.677Z,99745.59
2019-02-12T16:38:45.054Z,99745.09
2019-02-12T16:41:13.442Z,99745.99
2019-02-12T16:43:41.853Z,99746.52
2019-02-12T16:46:29.831Z,99751.84
2019-02-12T16:48:58.534Z,99756.03
2019-02-12T16:51:26.926Z,99751.28
2019-02-12T16:53:55.326Z,99759.83
2019-02-12T16:56:23.714Z,99761.78
2019-02-12T16:58:52.442Z,99767.52
2019-02-12T17:01:40.414Z,99779.31
2019-02-12T17:04:08.820Z,99776.48
2019-02-12T17:06:37.557Z,99783.81
2019-02-12T17:09:52.117Z,99784.52
2019-02-12T17:12:16.593Z,99791.95
2019-02-12T17:14:45.279Z,99790.58
2019-02-12T17:17:13.970Z,99800.98
2019-02-12T17:20:22.298Z,99803.12
2019-02-12T17:22:50.927Z,99803.19
2019-02-12T17:25:19.377Z,99803.47
2019-02-12T17:27:48.233Z,99804.83
2019-02-12T17:30:36.081Z,99808.22
2019-02-12T17:33:04.763Z,99812.73
2019-02-12T17:35:33.147Z,99821.33
2019-02-12T17:38:01.547Z,99821.92
2019-02-12T17:40:30.203Z,99823.72
2019-02-12T17:42:58.604Z,99824.95
2019-02-12T17:45:27.575Z,99823.23
2019-02-12T17:47:57.690Z,99821.62
2019-02-12T17:50:26.384Z,99828.05
2019-02-12T17:52:55.070Z,99833.20
2019-02-12T17:55:23.751Z,99834.63
2019-02-12T17:57:52.182Z,99833.33
2019-02-12T18:00:40.005Z,99833.25
2019-02-12T18:03:08.856Z,99835.05
2019-02-12T18:05:37.256Z,99837.61
2019-02-12T18:08:05.671Z,99833.44
2019-02-12T18:10:34.298Z,99838.47
2019-02-12T18:13:23.263Z,99833.95
2019-02-12T18:15:52.150Z,99841.46
2019-02-12T18:18:20.942Z,99846.20
2019-02-12T18:20:49.326Z,99841.70
2019-02-12T18:23:17.999Z,99843.91
2019-02-12T18:25:46.683Z,99845.53
2019-02-12T18:28:15.074Z,99854.20
2019-02-12T18:30:43.477Z,99856.66
2019-02-12T18:33:12.115Z,99855.58
2019-02-12T18:35:40.511Z,99859.38
2019-02-12T18:38:08.901Z,99856.37
2019-02-12T18:40:37.555Z,99865.15
2019-02-12T18:43:06.348Z,99857.91
2019-02-12T18:45:35.045Z,99868.22
2019-02-12T18:48:03.452Z,99872.22
2019-02-12T18:50:31.915Z,99867.62
2019-02-12T18:53:00.595Z,99866.67
2019-02-12T18:55:28.985Z,99866.91
2019-02-12T18:57:57.644Z,99868.80
2019-02-12T19:00:26.282Z,99862.63
2019-02-12T19:02:55.026Z,99866.83
2019-02-12T19:05:23.415Z,99865.95
2019-02-12T19:07:51.876Z,99863.75
2019-02-12T19:10:20.303Z,99866.22
2019-02-12T19:12:48.714Z,99864.25
2019-02-12T19:15:18.899Z,99861.93
2019-02-12T19:17:53.030Z,99857.30
2019-02-12T19:20:21.754Z,99866.86
2019-02-12T19:22:50.147Z,99866.41
2019-02-12T19:25:18.819Z,99864.73
2019-02-12T19:27:47.213Z,99872.75
2019-02-12T19:30:18.853Z,99870.63
2019-02-12T19:32:47.543Z,99882.78
2019-02-12T19:35:15.937Z,99873.23
2019-02-12T19:37:44.605Z,99875.05
2019-02-12T19:40:13.663Z,99867.30
2019-02-12T19:42:42.488Z,99864.61
2019-02-12T19:45:16.068Z,99868.08
2019-02-12T19:47:44.458Z,99870.63
2019-02-12T19:50:13.260Z,99879.05
2019-02-12T19:52:41.704Z,99892.09
2019-02-12T19:55:10.695Z,99888.03
2019-02-12T19:57:39.255Z,99892.59
2019-02-12T20:00:14.746Z,99896.88
2019-02-12T20:02:43.137Z,99888.91
2019-02-12T20:05:12.413Z,99890.35
2019-02-12T20:07:40.822Z,99905.45
2019-02-12T20:10:11.365Z,99905.45
2019-02-12T20:12:39.783Z,99904.38
2019-02-12T20:15:16.425Z,99897.91
2019-02-12T20:17:44.839Z,99895.51
2019-02-12T20:20:13.771Z,99886.23
2019-02-12T20:22:42.165Z,99881.45
2019-02-12T20:25:11.204Z,99874.43
2019-02-12T20:27:39.943Z,99880.78
2019-02-12T20:30:19.294Z,99880.45
2019-02-12T20:32:47.958Z,99879.13
2019-02-12T20:35:20.721Z,99877.77
2019-02-12T20:37:49.180Z,99886.12
2019-02-12T20:40:17.643Z,99893.94
2019-02-12T20:42:46.121Z,99883.34
2019-02-12T20:45:17.096Z,99887.50
2019-02-12T20:47:45.805Z,99881.83
2019-02-12T20:50:21.491Z,99877.05
2019-02-12T20:52:49.900Z,99875.86
2019-02-12T20:55:18.618Z,99881.06
2019-02-12T20:57:48.557Z,99882.95
2019-02-12T21:00:24.591Z,99882.09
2019-02-12T21:02:52.985Z,99887.23
2019-02-12T21:05:21.654Z,99885.23
2019-02-12T21:07:50.044Z,99905.56
2019-02-12T21:10:20.051Z,99903.20
2019-02-12T21:12:48.443Z,99907.50
2019-02-12T21:15:19.571Z,99904.69
2019-02-12T21:17:47.919Z,99902.91
2019-02-12T21:20:16.309Z,99908.09
2019-02-12T21:22:45.137Z,99908.53
2019-02-12T21:25:14.124Z,99908.36
2019-02-12T21:27:42.800Z,99907.63
2019-02-12T21:30:14.454Z,99904.47
2019-02-12T21:32:42.847Z,99911.89
2019-02-12T21:35:13.083Z,99916.59
2019-02-12T21:37:41.483Z,99923.03
2019-02-12T21:40:13.230Z,99923.09
2019-02-12T21:42:41.613Z,99920.00
2019-02-12T21:45:12.716Z,99919.16
2019-02-12T21:47:41.228Z,99916.06
2019-02-12T21:50:11.500Z,99920.52
2019-02-12T21:52:39.905Z,99919.49
2019-02-12T21:55:17.802Z,99919.03
2019-02-12T21:57:46.204Z,99920.16
2019-02-12T22:00:16.952Z,99920.02
2019-02-12T22:02:45.711Z,99925.23
2019-02-12T22:05:15.986Z,99923.45
2019-02-12T22:07:44.714Z,99920.30
2019-02-12T22:10:21.484Z,99925.36
2019-02-12T22:12:50.232Z,99922.31
2019-02-12T22:15:18.961Z,99930.89
2019-02-12T22:17:47.357Z,99931.94
2019-02-12T22:20:18.283Z,99927.02
2019-02-12T22:22:46.675Z,99925.02
2019-02-12T22:25:15.081Z,99927.35
2019-02-12T22:27:43.736Z,99926.77
2019-02-12T22:30:22.758Z,99926.28
2019-02-12T22:32:51.462Z,99917.48
2019-02-12T22:35:19.853Z,99926.22
2019-02-12T22:37:48.261Z,99927.00
2019-02-12T22:40:17.298Z,99938.36
2019-02-12T22:42:45.981Z,99928.23
2019-02-12T22:45:17.326Z,99930.50
2019-02-12T22:47:45.962Z,99928.61
2019-02-12T22:50:14.503Z,99936.02
2019-02-12T22:52:42.901Z,99933.81
2019-02-12T22:55:11.969Z,99934.33
2019-02-12T22:57:48.552Z,99935.08
2019-02-12T23:00:39.484Z,99933.45
2019-02-12T23:03:08.410Z,99924.67
2019-02-12T23:05:36.801Z,99922.58
2019-02-12T23:08:05.347Z,99919.52
2019-02-12T23:10:33.808Z,99921.49
2019-02-12T23:13:02.466Z,99917.15
2019-02-12T23:15:30.854Z,99910.77
2019-02-12T23:17:59.254Z,99907.66
2019-02-12T23:20:27.663Z,99900.22
2019-02-12T23:22:56.107Z,99900.12
2019-02-12T23:25:24.769Z,99899.20
2019-02-12T23:27:57.500Z,99893.05
2019-02-12T23:30:23.882Z,99889.20
2019-02-12T23:32:52.567Z,99892.14
2019-02-12T23:35:20.973Z,99895.25
2019-02-12T23:37:49.364Z,99899.23
2019-02-12T23:40:17.777Z,99906.14
2019-02-12T23:42:46.488Z,99913.59
2019-02-12T23:45:15.184Z,99908.11
2019-02-12T23:47:43.861Z,99904.77
2019-02-12T23:50:12.649Z,99905.62
2019-02-12T23:52:41.336Z,99899.87
2019-02-12T23:55:10.035Z,99902.59
2019-02-12T23:57:38.713Z,99903.47
